Time;durP1;ratioP1;P1;durP2;ratioP2;P2;SDS_P1;SDS_P2;PMS_P1;PMS_P2;Temp;Humidity;BMP_temperature;BMP_pressure;BME280_temperature;BME280_humidity;BME280_pressure;Samples;Min_cycle;Max_cycle;Signal;HPM_P1;HPM_P2
2023/06/14 00:01:14;;;;;;;3.03;2.58;;;;;;;19.17;56.31;101537.44;5039255;28;20041;-71
2023/06/14 00:03:39;;;;;;;5.05;2.50;;;;;;;19.08;56.74;101545.13;5039180;28;20037;-71
2023/06/14 00:06:04;;;;;;;9.52;3.28;;;;;;;19.01;56.76;101539.38;5039200;28;20033;-71
2023/06/14 00:08:30;;;;;;;7.82;2.63;;;;;;;19.04;56.80;101543.63;5039510;28;20056;-71
2023/06/14 00:10:55;;;;;;;2.75;2.55;;;;;;;19.00;57.07;101540.31;5039168;28;20243;-71
2023/06/14 00:13:21;;;;;;;3.15;2.95;;;;;;;18.98;57.46;101536.94;5039410;28;20040;-71
2023/06/14 00:15:47;;;;;;;4.28;2.78;;;;;;;18.96;57.61;101542.31;5039177;28;20033;-71
2023/06/14 00:18:13;;;;;;;3.10;2.60;;;;;;;18.94;57.62;101544.22;5039112;28;20029;-71
2023/06/14 00:20:39;;;;;;;2.92;2.50;;;;;;;18.87;57.87;101545.59;5039616;28;20266;-71
2023/06/14 00:23:04;;;;;;;5.72;2.90;;;;;;;18.82;57.95;101546.84;5039156;28;20360;-71
2023/06/14 00:25:30;;;;;;;3.83;2.70;;;;;;;18.74;58.29;101548.13;5038015;28;20044;-71
2023/06/14 00:27:57;;;;;;;4.00;2.90;;;;;;;18.74;58.41;101552.59;5038747;28;20037;-71
2023/06/14 00:30:23;;;;;;;4.78;2.67;;;;;;;18.78;58.50;101556.75;5038423;28;20267;-71
2023/06/14 00:32:48;;;;;;;3.90;2.88;;;;;;;18.78;58.88;101549.63;5038956;28;20021;-71
2023/06/14 00:35:14;;;;;;;5.82;2.83;;;;;;;18.80;58.63;101552.19;5038583;28;20375;-71
2023/06/14 00:37:40;;;;;;;6.80;3.33;;;;;;;18.73;59.00;101546.41;5038987;28;20029;-71
2023/06/14 00:40:07;;;;;;;4.95;3.13;;;;;;;18.66;59.32;101546.91;5038236;28;20335;-71
2023/06/14 00:42:32;;;;;;;5.82;2.70;;;;;;;18.64;59.21;101547.00;5038679;28;20318;-71
2023/06/14 00:44:58;;;;;;;5.75;2.80;;;;;;;18.64;59.33;101552.31;5038115;28;20040;-71
2023/06/14 00:47:24;;;;;;;11.60;3.00;;;;;;;18.55;59.84;101550.25;5038669;28;20105;-71
2023/06/14 00:49:51;;;;;;;3.35;2.75;;;;;;;18.55;59.64;101545.78;5038315;28;20347;-71
2023/06/14 00:52:17;;;;;;;5.22;2.88;;;;;;;18.50;60.11;101545.25;5038414;28;20048;-71
2023/06/14 00:54:43;;;;;;;6.45;2.67;;;;;;;18.51;60.17;101549.59;5038643;28;20304;-71
2023/06/14 00:57:10;;;;;;;6.78;2.83;;;;;;;18.52;59.91;101551.31;5037702;28;20051;-71
2023/06/14 00:59:47;;;;;;;4.57;3.10;;;;;;;18.60;59.80;101549.00;5038557;28;20040;-71
2023/06/14 01:02:14;;;;;;;3.00;2.60;;;;;;;18.55;60.21;101552.91;5038093;28;20053;-71
2023/06/14 01:04:41;;;;;;;4.65;2.58;;;;;;;18.52;60.24;101545.13;5038528;28;20059;-71
2023/06/14 01:07:42;;;;;;;5.93;2.97;;;;;;;18.43;60.81;101543.94;5037850;28;20104;-71
2023/06/14 01:10:51;;;;;;;3.28;3.08;;;;;;;18.41;60.86;101540.53;5037774;28;20089;-71
2023/06/14 01:13:33;;;;;;;10.43;2.90;;;;;;;18.44;60.78;101540.31;5038166;28;20029;-71
2023/06/14 01:16:00;;;;;;;4.03;2.95;;;;;;;18.38;60.76;101543.34;5038028;28;20041;-71
2023/06/14 01:18:27;;;;;;;6.25;3.05;;;;;;;18.39;60.61;101537.09;5038387;28;20033;-71
2023/06/14 01:20:55;;;;;;;7.80;3.42;;;;;;;18.37;60.65;101541.66;5037515;28;20060;-71
2023/06/14 01:23:21;;;;;;;3.83;3.38;;;;;;;18.35;60.67;101538.25;5038255;28;20052;-71
2023/06/14 01:25:47;;;;;;;4.82;2.58;;;;;;;18.35;60.87;101540.88;5037722;28;20354;-71
2023/06/14 01:28:16;;;;;;;4.72;2.38;;;;;;;18.41;60.24;101536.06;5038301;28;20316;-71
2023/06/14 01:30:47;;;;;;;3.22;2.90;;;;;;;18.41;60.22;101541.38;5038186;28;20037;-71
2023/06/14 01:33:18;;;;;;;4.32;2.95;;;;;;;18.36;60.73;101537.31;5038056;28;20029;-71
2023/06/14 01:35:47;;;;;;;5.97;2.80;;;;;;;18.41;60.30;101540.53;5037715;28;20329;-71
2023/06/14 01:38:17;;;;;;;3.97;2.90;;;;;;;18.45;60.18;101542.03;5036817;28;20064;-71
2023/06/14 01:40:47;;;;;;;5.38;2.80;;;;;;;18.40;60.38;101536.16;5037999;28;20037;-71
2023/06/14 01:43:16;;;;;;;3.10;2.72;;;;;;;18.47;60.55;101544.59;5037652;28;20033;-71
2023/06/14 01:45:42;;;;;;;3.40;2.92;;;;;;;18.47;59.85;101540.13;5037550;28;20084;-71
2023/06/14 01:48:08;;;;;;;5.90;2.95;;;;;;;18.48;59.68;101541.84;5036927;28;20064;-71
2023/06/14 01:50:34;;;;;;;6.68;2.72;;;;;;;18.43;60.09;101541.28;5037521;28;20045;-71
2023/06/14 01:53:00;;;;;;;3.35;2.30;;;;;;;18.46;59.72;101538.41;5037359;28;20033;-71
2023/06/14 01:55:25;;;;;;;5.78;2.60;;;;;;;18.45;59.81;101536.72;5037460;28;20028;-71
2023/06/14 01:57:54;;;;;;;3.30;2.78;;;;;;;18.46;60.18;101538.41;5037257;28;20043;-71
2023/06/14 02:00:21;;;;;;;4.85;2.70;;;;;;;18.44;60.40;101540.31;5037540;28;20141;-71
2023/06/14 02:02:47;;;;;;;4.20;2.45;;;;;;;18.40;61.04;101538.81;5037027;28;20055;-71
2023/06/14 02:05:12;;;;;;;3.05;2.53;;;;;;;18.37;60.94;101536.34;5037151;28;20088;-71
2023/06/14 02:07:38;;;;;;;3.63;2.55;;;;;;;18.34;60.65;101544.50;5037598;28;20083;-71
2023/06/14 02:10:04;;;;;;;4.40;2.90;;;;;;;18.32;60.91;101547.25;5037038;28;20036;-71
2023/06/14 02:12:30;;;;;;;2.83;2.55;;;;;;;18.30;60.41;101537.66;5037678;28;20041;-71
2023/06/14 02:14:56;;;;;;;3.35;2.80;;;;;;;18.28;61.02;101545.75;5037037;28;20235;-71
2023/06/14 02:17:22;;;;;;;3.00;2.72;;;;;;;18.26;60.60;101542.31;5037287;28;20037;-71
2023/06/14 02:19:47;;;;;;;4.65;3.03;;;;;;;18.26;60.41;101536.16;5037133;28;20092;-71
2023/06/14 02:22:14;;;;;;;16.35;3.17;;;;;;;18.18;60.91;101545.44;5037495;28;20033;-71
2023/06/14 02:24:40;;;;;;;4.07;2.60;;;;;;;18.15;61.39;101542.13;5037630;28;20022;-71
2023/06/14 02:27:06;;;;;;;6.88;2.58;;;;;;;18.15;60.86;101544.78;5037197;28;20698;-71
2023/06/14 02:29:31;;;;;;;6.00;2.90;;;;;;;18.12;61.15;101544.94;5037152;28;20104;-71
2023/06/14 02:31:57;;;;;;;4.00;2.90;;;;;;;18.03;60.53;101546.41;5036986;28;20299;-71
2023/06/14 02:34:22;;;;;;;6.50;2.90;;;;;;;18.06;60.26;101550.63;5036762;28;20033;-71
2023/06/14 02:36:48;;;;;;;3.55;3.25;;;;;;;18.04;60.43;101553.38;5036630;28;20037;-71
2023/06/14 02:39:13;;;;;;;4.35;2.50;;;;;;;18.00;59.69;101551.88;5037311;28;20101;-71
2023/06/14 02:41:39;;;;;;;6.25;3.13;;;;;;;17.95;60.18;101552.13;5036955;28;20038;-71
2023/06/14 02:44:05;;;;;;;4.55;2.67;;;;;;;17.93;60.78;101553.19;5036978;28;20037;-72
2023/06/14 02:46:31;;;;;;;3.47;2.65;;;;;;;17.95;60.22;101551.28;5037090;28;20259;-72
2023/06/14 02:48:56;;;;;;;3.78;2.58;;;;;;;17.91;60.43;101552.44;5037914;28;20064;-72
2023/06/14 02:51:22;;;;;;;4.53;2.50;;;;;;;17.90;59.86;101551.59;5041137;28;20069;-72
2023/06/14 02:53:47;;;;;;;7.13;2.72;;;;;;;17.67;59.82;101557.38;5040559;28;20056;-72
2023/06/14 02:56:13;;;;;;;5.95;3.00;;;;;;;17.70;59.56;101551.88;5040625;28;20052;-72
2023/06/14 02:58:39;;;;;;;7.15;3.10;;;;;;;17.60;59.94;101554.22;5041107;28;20034;-72
2023/06/14 03:01:05;;;;;;;5.28;2.92;;;;;;;17.56;59.60;101550.91;5040600;28;20060;-72
2023/06/14 03:03:30;;;;;;;4.18;2.80;;;;;;;17.55;59.59;101558.94;5040564;28;20059;-72
2023/06/14 03:05:56;;;;;;;4.60;3.15;;;;;;;17.43;60.02;101557.88;5031651;28;20373;-72
2023/06/14 03:08:27;;;;;;;7.70;2.85;;;;;;;17.31;60.00;101566.50;5040505;28;20143;-72
2023/06/14 03:10:52;;;;;;;3.10;2.80;;;;;;;17.30;59.83;101563.03;5040314;28;20040;-72
2023/06/14 03:13:21;;;;;;;8.68;2.92;;;;;;;17.27;59.88;101563.19;5040519;28;20029;-72
2023/06/14 03:15:50;;;;;;;3.22;2.92;;;;;;;17.24;59.84;101568.66;5040293;28;20037;-72
2023/06/14 03:18:15;;;;;;;5.45;3.17;;;;;;;17.27;59.71;101566.69;5040218;28;20071;-72
2023/06/14 03:20:42;;;;;;;2.97;2.78;;;;;;;17.23;59.80;101572.25;5040354;28;20060;-72
2023/06/14 03:23:07;;;;;;;2.78;2.50;;;;;;;17.19;59.57;101579.50;5039818;28;20033;-72
2023/06/14 03:25:35;;;;;;;12.38;4.47;;;;;;;17.13;59.35;101581.66;5040334;28;20493;-72
2023/06/14 03:28:03;;;;;;;3.33;2.80;;;;;;;17.02;59.55;101584.88;5039885;28;20040;-72
2023/06/14 03:30:30;;;;;;;8.93;2.90;;;;;;;17.04;59.45;101586.50;5040198;28;20025;-72
2023/06/14 03:32:55;;;;;;;3.83;2.75;;;;;;;16.88;60.00;101589.16;5039720;28;20327;-72
2023/06/14 03:35:21;;;;;;;8.90;3.13;;;;;;;16.83;60.21;101595.66;5040075;28;20026;-72
2023/06/14 03:37:47;;;;;;;8.38;3.22;;;;;;;16.85;59.92;101597.25;5039935;28;20075;-72
2023/06/14 03:40:14;;;;;;;3.95;2.90;;;;;;;16.84;59.96;101595.53;5039972;28;20041;-72
2023/06/14 03:42:40;;;;;;;5.97;2.85;;;;;;;16.89;59.97;101592.66;5040113;28;20051;-72
2023/06/14 03:45:06;;;;;;;4.85;2.72;;;;;;;16.81;60.48;101598.34;5039911;28;20411;-72
2023/06/14 03:47:31;;;;;;;5.53;3.20;;;;;;;16.72;60.54;101593.56;5039613;28;20348;-72
2023/06/14 03:49:57;;;;;;;7.53;2.70;;;;;;;16.70;60.66;101596.28;5039466;28;20044;-72
2023/06/14 03:52:23;;;;;;;5.88;2.85;;;;;;;16.74;60.08;101601.41;5039894;28;20033;-72
2023/06/14 03:54:49;;;;;;;16.58;3.00;;;;;;;16.73;60.46;101594.41;5038765;28;20320;-72
2023/06/14 03:57:14;;;;;;;6.00;2.70;;;;;;;16.80;60.35;101607.22;5039265;28;20143;-72
2023/06/14 03:59:41;;;;;;;4.60;3.20;;;;;;;16.75;60.28;101598.66;5039319;28;20037;-72
2023/06/14 04:02:06;;;;;;;8.90;2.72;;;;;;;16.77;60.36;101612.69;5038197;28;20107;-72
2023/06/14 04:04:32;;;;;;;5.93;3.08;;;;;;;16.71;60.39;101605.06;5039443;28;20025;-72
2023/06/14 04:06:59;;;;;;;6.18;2.85;;;;;;;16.86;60.37;101612.22;5039289;28;20041;-72
2023/06/14 04:09:24;;;;;;;4.88;2.95;;;;;;;16.73;60.69;101608.47;5039595;28;20037;-72
2023/06/14 04:11:52;;;;;;;10.32;3.10;;;;;;;16.67;61.16;101612.31;5039133;28;20117;-72
2023/06/14 04:14:19;;;;;;;6.00;2.83;;;;;;;16.61;61.04;101607.38;5039346;28;20218;-72
2023/06/14 04:16:45;;;;;;;5.85;2.78;;;;;;;16.61;61.24;101619.75;5039880;28;20053;-72
2023/06/14 04:19:11;;;;;;;3.65;2.90;;;;;;;16.56;61.16;101619.97;5039016;28;20103;-72
2023/06/14 04:21:36;;;;;;;8.10;3.22;;;;;;;16.61;61.29;101619.75;5039369;28;20036;-72
2023/06/14 04:24:02;;;;;;;6.07;2.63;;;;;;;16.65;61.50;101619.47;5039078;28;20052;-72
2023/06/14 04:26:29;;;;;;;5.32;2.85;;;;;;;16.66;61.56;101625.63;5039095;28;20406;-72
2023/06/14 04:28:56;;;;;;;7.68;3.15;;;;;;;16.63;61.59;101623.16;5039042;28;20064;-72
2023/06/14 04:31:24;;;;;;;5.45;2.78;;;;;;;16.69;61.08;101628.94;5039114;28;20033;-72
2023/06/14 04:33:50;;;;;;;9.02;2.90;;;;;;;16.62;61.63;101630.22;5038628;28;20032;-72
2023/06/14 04:36:17;;;;;;;11.05;3.15;;;;;;;16.72;61.28;101617.38;5038922;28;20081;-72
2023/06/14 04:38:44;;;;;;;6.85;2.67;;;;;;;16.77;61.00;101630.31;5039283;28;20033;-72
2023/06/14 04:41:11;;;;;;;5.97;2.67;;;;;;;16.79;61.25;101623.16;5038073;28;20040;-72
2023/06/14 04:43:37;;;;;;;5.40;3.00;;;;;;;16.83;61.05;101622.09;5038931;28;20033;-72
2023/06/14 04:46:10;;;;;;;5.63;2.88;;;;;;;16.77;60.54;101625.03;5038451;28;20045;-72
2023/06/14 04:48:35;;;;;;;3.28;2.75;;;;;;;16.76;60.79;101626.84;5039053;28;20033;-72
2023/06/14 04:51:03;;;;;;;5.30;2.70;;;;;;;16.77;60.73;101623.25;5038454;28;20037;-72
2023/06/14 04:53:29;;;;;;;3.13;2.80;;;;;;;16.84;60.61;101618.50;5038770;28;20391;-72
2023/06/14 04:55:54;;;;;;;8.90;2.90;;;;;;;16.84;60.33;101615.84;5038387;28;20268;-72
2023/06/14 04:58:20;;;;;;;3.72;2.55;;;;;;;16.81;60.55;101611.56;5038529;28;20367;-72
2023/06/14 05:00:45;;;;;;;7.65;2.70;;;;;;;16.87;60.09;101618.34;5038561;28;20112;-72
2023/06/14 05:03:12;;;;;;;4.93;2.45;;;;;;;16.88;60.12;101623.56;5037767;28;20079;-72
2023/06/14 05:05:40;;;;;;;2.80;2.60;;;;;;;16.88;60.53;101626.19;5038202;28;20041;-72
2023/06/14 05:08:05;;;;;;;7.80;2.70;;;;;;;16.96;60.06;101624.94;5038366;28;20075;-72
2023/06/14 05:10:31;;;;;;;7.35;2.85;;;;;;;16.99;59.81;101633.56;5038079;28;20041;-72
2023/06/14 05:12:56;;;;;;;4.85;2.72;;;;;;;16.97;59.40;101630.16;5037822;28;20033;-72
2023/06/14 05:15:25;;;;;;;8.45;2.90;;;;;;;16.98;59.96;101631.00;5038317;28;20025;-72
2023/06/14 05:17:54;;;;;;;9.45;3.10;;;;;;;17.01;60.14;101638.78;5037660;28;20084;-72
2023/06/14 05:20:21;;;;;;;5.43;2.60;;;;;;;16.98;59.53;101634.47;5037240;28;20324;-72
2023/06/14 05:22:46;;;;;;;5.78;2.83;;;;;;;17.01;59.48;101636.97;5036864;28;20085;-72
2023/06/14 05:25:12;;;;;;;4.35;2.78;;;;;;;17.04;58.47;101635.94;5034478;28;20159;-72
2023/06/14 05:27:37;;;;;;;3.33;2.28;;;;;;;17.06;59.17;101642.88;5037562;28;20379;-72
2023/06/14 05:30:04;;;;;;;3.08;2.72;;;;;;;17.12;58.80;101639.03;5037014;28;20216;-72
2023/06/14 05:32:30;;;;;;;6.85;2.53;;;;;;;17.17;58.86;101649.34;5037489;28;20033;-72
2023/06/14 05:34:56;;;;;;;5.28;2.72;;;;;;;17.19;58.77;101644.81;5037614;28;20084;-72
2023/06/14 05:37:21;;;;;;;7.32;2.75;;;;;;;17.25;58.53;101657.72;5036595;28;20028;-72
2023/06/14 05:39:46;;;;;;;5.18;2.47;;;;;;;17.32;57.84;101651.16;5035351;28;20041;-72
2023/06/14 05:42:12;;;;;;;8.55;3.00;;;;;;;17.29;58.15;101653.09;5034789;28;20118;-72
2023/06/14 05:44:37;;;;;;;8.98;2.78;;;;;;;17.33;57.98;101654.63;5035271;28;20080;-72
2023/06/14 05:47:03;;;;;;;3.70;2.83;;;;;;;17.35;58.37;101656.25;5036985;28;20320;-72
2023/06/14 05:49:29;;;;;;;12.07;2.78;;;;;;;17.38;58.22;101658.72;5037250;28;20108;-72
2023/06/14 05:51:54;;;;;;;10.05;3.08;;;;;;;17.42;58.10;101657.59;5036942;28;20045;-72
2023/06/14 05:54:19;;;;;;;4.65;2.83;;;;;;;17.44;58.00;101662.81;5037297;28;20076;-72
2023/06/14 05:56:44;;;;;;;8.18;2.95;;;;;;;17.50;57.08;101654.56;5037605;28;20037;-72
2023/06/14 05:59:10;;;;;;;5.32;2.70;;;;;;;17.50;56.99;101659.84;5036943;28;20048;-72
2023/06/14 06:01:36;;;;;;;6.32;2.88;;;;;;;17.52;57.52;101665.91;5036747;28;20056;-72
2023/06/14 06:04:02;;;;;;;7.60;2.80;;;;;;;17.52;56.72;101662.38;5036751;28;20232;-72
2023/06/14 06:06:28;;;;;;;4.30;2.88;;;;;;;17.56;57.09;101653.34;5036406;28;20029;-72
2023/06/14 06:08:53;;;;;;;5.68;3.20;;;;;;;17.58;57.10;101648.81;5036655;28;20459;-72
2023/06/14 06:11:20;;;;;;;7.32;2.47;;;;;;;17.65;56.60;101652.81;5036175;28;20061;-72
2023/06/14 06:13:45;;;;;;;6.57;2.90;;;;;;;17.64;56.69;101651.97;5036817;28;20218;-72
2023/06/14 06:16:11;;;;;;;5.97;2.50;;;;;;;17.70;56.37;101656.06;5036263;28;20222;-72
2023/06/14 06:18:36;;;;;;;4.40;3.03;;;;;;;17.77;56.69;101661.84;5036460;28;20049;-72
2023/06/14 06:21:03;;;;;;;3.10;2.85;;;;;;;17.77;56.22;101659.19;5035248;28;20029;-72
2023/06/14 06:23:28;;;;;;;7.22;2.85;;;;;;;17.81;55.96;101661.56;5037092;28;20389;-72
2023/06/14 06:25:54;;;;;;;8.27;2.70;;;;;;;17.81;55.68;101658.94;5040500;28;20040;-72
2023/06/14 06:28:20;;;;;;;4.85;2.60;;;;;;;17.87;55.61;101664.84;5039828;28;20029;-72
2023/06/14 06:30:45;;;;;;;10.25;3.17;;;;;;;17.92;56.12;101670.72;5039977;28;20022;-72
2023/06/14 06:33:11;;;;;;;6.70;2.72;;;;;;;18.00;56.26;101661.38;5039437;28;20032;-72
2023/06/14 06:35:37;;;;;;;23.48;2.60;;;;;;;18.09;55.84;101673.22;5039892;28;20064;-72
2023/06/14 06:38:02;;;;;;;11.48;2.90;;;;;;;18.09;56.05;101673.22;5039810;28;20112;-72
2023/06/14 06:40:28;;;;;;;5.88;2.65;;;;;;;18.17;55.84;101675.41;5040122;28;20091;-72
2023/06/14 06:42:54;;;;;;;4.25;2.40;;;;;;;18.23;55.44;101669.78;5040170;28;20032;-72
2023/06/14 06:45:19;;;;;;;4.53;2.75;;;;;;;18.30;55.17;101678.19;5040417;28;20080;-72
2023/06/14 06:47:45;;;;;;;4.20;2.50;;;;;;;18.42;54.58;101680.13;5040897;28;20336;-72
2023/06/14 06:50:10;;;;;;;10.13;3.25;;;;;;;18.42;54.13;101683.59;5039881;28;20033;-72
2023/06/14 06:52:36;;;;;;;6.90;2.85;;;;;;;18.49;53.95;101686.75;5041042;28;20021;-72
2023/06/14 06:55:02;;;;;;;7.82;2.88;;;;;;;18.52;54.67;101691.88;5039327;28;20025;-72
2023/06/14 06:57:28;;;;;;;5.13;2.80;;;;;;;18.54;53.75;101689.97;5040618;28;20045;-72
2023/06/14 06:59:54;;;;;;;9.25;3.42;;;;;;;18.52;53.96;101694.53;5040400;28;20033;-72
2023/06/14 07:02:19;;;;;;;8.20;3.00;;;;;;;18.61;54.06;101693.13;5026514;28;20051;-72
2023/06/14 07:04:45;;;;;;;5.22;3.03;;;;;;;18.65;53.37;101697.28;5040169;28;20038;-72
2023/06/14 07:07:10;;;;;;;4.05;3.30;;;;;;;18.66;53.42;101696.31;5039248;28;20340;-72
2023/06/14 07:09:36;;;;;;;5.18;2.80;;;;;;;18.75;53.68;101705.53;5011284;28;20060;-72
2023/06/14 07:12:01;;;;;;;8.43;3.05;;;;;;;18.81;54.04;101710.50;4979018;28;20022;-72
2023/06/14 07:14:27;;;;;;;11.75;3.13;;;;;;;18.87;53.77;101706.63;4974850;28;20046;-72
2023/06/14 07:16:52;;;;;;;2.83;2.63;;;;;;;18.96;52.11;101706.03;4977912;28;20034;-72
2023/06/14 07:19:18;;;;;;;8.23;3.00;;;;;;;19.06;52.12;101703.66;4977281;28;20236;-72
2023/06/14 07:21:43;;;;;;;6.53;3.00;;;;;;;19.08;52.54;101707.94;4969779;28;20054;-72
2023/06/14 07:24:09;;;;;;;10.27;3.03;;;;;;;19.14;52.51;101714.66;4975345;28;20038;-72
2023/06/14 07:26:35;;;;;;;10.05;2.90;;;;;;;19.18;53.38;101710.84;4964728;28;20043;-72
2023/06/14 07:29:00;;;;;;;4.93;3.28;;;;;;;19.27;52.40;101710.28;4972789;28;20030;-72
2023/06/14 07:31:26;;;;;;;5.72;3.10;;;;;;;19.35;51.93;101709.78;4974969;28;20030;-72
2023/06/14 07:33:51;;;;;;;8.18;2.90;;;;;;;19.40;51.68;101707.69;4971973;28;20030;-72
2023/06/14 07:36:17;;;;;;;6.05;3.10;;;;;;;19.47;52.58;101709.00;4967549;28;20023;-72
2023/06/14 07:38:43;;;;;;;5.57;3.35;;;;;;;19.56;52.06;101710.22;4970673;28;20043;-72
2023/06/14 07:41:08;;;;;;;8.38;3.22;;;;;;;19.61;51.22;101710.75;4973858;28;20027;-72
2023/06/14 07:43:34;;;;;;;7.05;3.03;;;;;;;19.67;51.77;101710.34;4974977;28;20070;-72
2023/06/14 07:46:00;;;;;;;5.95;2.90;;;;;;;19.77;51.53;101720.41;4973299;28;20039;-72
2023/06/14 07:48:25;;;;;;;2.97;2.67;;;;;;;19.84;50.17;101722.56;4967877;28;20031;-72
2023/06/14 07:50:50;;;;;;;5.80;3.03;;;;;;;19.92;50.37;101722.91;4976865;28;20299;-72
2023/06/14 07:53:16;;;;;;;7.18;3.10;;;;;;;19.99;50.11;101727.81;4974191;28;20039;-72
2023/06/14 07:55:43;;;;;;;3.17;2.88;;;;;;;20.04;50.75;101725.72;4974721;28;20023;-72
2023/06/14 07:58:09;;;;;;;7.93;3.42;;;;;;;20.10;50.30;101725.28;4973093;28;20022;-72
2023/06/14 08:00:34;;;;;;;8.90;3.08;;;;;;;20.16;50.68;101729.38;4967573;28;20344;-72
2023/06/14 08:03:00;;;;;;;10.90;3.28;;;;;;;20.23;49.91;101728.84;4979610;28;20141;-72
2023/06/14 08:05:26;;;;;;;10.45;3.05;;;;;;;20.30;49.94;101726.59;4978043;28;20105;-72
2023/06/14 08:07:52;;;;;;;6.63;3.13;;;;;;;20.35;49.90;101726.31;4979590;28;20047;-72
2023/06/14 08:10:17;;;;;;;4.47;2.80;;;;;;;20.45;49.54;101724.72;4972859;28;20090;-72
2023/06/14 08:12:43;;;;;;;6.10;3.58;;;;;;;20.50;48.96;101727.91;4996937;28;20145;-72
2023/06/14 08:15:08;;;;;;;5.82;2.67;;;;;;;20.57;49.08;101731.84;4975559;28;20034;-72
2023/06/14 08:17:34;;;;;;;6.60;3.08;;;;;;;20.63;49.44;101728.81;4978216;28;20043;-72
2023/06/14 08:20:00;;;;;;;6.03;2.90;;;;;;;20.70;49.22;101734.53;4993755;28;20035;-72
2023/06/14 08:22:25;;;;;;;4.70;3.17;;;;;;;20.77;49.21;101727.84;4972508;28;20390;-72
2023/06/14 08:24:52;;;;;;;3.78;2.92;;;;;;;20.85;49.45;101733.50;4975931;28;20085;-72
2023/06/14 08:27:18;;;;;;;5.43;3.17;;;;;;;20.94;48.57;101739.13;4977465;28;20084;-72
2023/06/14 08:29:44;;;;;;;6.93;3.20;;;;;;;20.98;48.26;101741.47;4970375;28;20325;-72
2023/06/14 08:32:10;;;;;;;8.07;3.25;;;;;;;21.04;46.77;101741.03;4972197;28;20034;-72
2023/06/14 08:34:35;;;;;;;6.32;2.95;;;;;;;21.08;47.71;101737.19;4979099;28;20065;-72
2023/06/14 08:37:01;;;;;;;4.50;2.80;;;;;;;21.17;47.95;101743.66;4979026;28;20089;-72
2023/06/14 08:39:26;;;;;;;10.32;2.60;;;;;;;21.23;47.07;101737.91;4971321;28;20034;-72
2023/06/14 08:41:52;;;;;;;4.25;2.80;;;;;;;21.27;47.72;101735.88;4974269;28;20398;-72
2023/06/14 08:44:18;;;;;;;7.05;2.80;;;;;;;21.36;47.51;101737.03;4969959;28;20030;-72
2023/06/14 08:46:43;;;;;;;3.20;2.70;;;;;;;21.43;48.08;101732.97;4972607;28;20106;-72
2023/06/14 08:49:11;;;;;;;5.15;3.00;;;;;;;21.49;47.53;101737.03;4975154;28;20023;-72
2023/06/14 08:51:40;;;;;;;2.92;2.63;;;;;;;21.55;46.63;101744.56;4973446;28;20373;-72
2023/06/14 08:54:06;;;;;;;;;;;;;;;21.57;46.58;101738.16;4979169;28;20031;-72
2023/06/14 08:56:33;;;;;;;4.35;2.72;;;;;;;21.65;45.27;101742.94;4977406;28;20238;-71
2023/06/14 08:59:02;;;;;;;7.68;2.80;;;;;;;21.69;45.38;101743.56;4971106;28;20035;-71
2023/06/14 09:01:28;;;;;;;3.25;2.45;;;;;;;21.74;46.01;101742.25;4974772;28;20081;-71
2023/06/14 09:03:57;;;;;;;4.15;2.50;;;;;;;21.78;45.48;101741.06;4977172;28;20062;-71
2023/06/14 09:06:24;;;;;;;5.75;2.70;;;;;;;21.84;45.44;101742.44;4971317;28;20041;-71
2023/06/14 09:08:50;;;;;;;5.15;3.17;;;;;;;21.91;45.19;101746.34;4972954;28;20034;-71
2023/06/14 09:11:18;;;;;;;7.45;2.70;;;;;;;21.97;45.16;101751.19;4968875;28;20039;-71
2023/06/14 09:13:45;;;;;;;5.13;2.70;;;;;;;22.05;45.14;101753.31;4972201;28;20285;-71
2023/06/14 09:16:11;;;;;;;14.65;3.03;;;;;;;22.08;45.25;101741.56;4970808;28;20022;-71
2023/06/14 09:18:44;;;;;;;4.35;2.63;;;;;;;22.16;43.84;101748.03;4973634;28;20090;-71
2023/06/14 09:21:11;;;;;;;8.77;2.70;;;;;;;22.18;43.44;101739.91;4971701;28;20069;-71
2023/06/14 09:23:38;;;;;;;6.57;2.60;;;;;;;22.26;44.41;101745.53;4973065;28;20062;-71
2023/06/14 09:26:17;;;;;;;5.50;2.50;;;;;;;22.35;44.12;101750.16;4969185;28;20282;-71
2023/06/14 09:28:44;;;;;;;16.50;2.97;;;;;;;22.40;43.20;101749.81;4971981;28;20065;-71
2023/06/14 09:31:16;;;;;;;2.53;2.33;;;;;;;22.46;42.76;101748.50;4971579;28;20062;-71
2023/06/14 09:33:47;;;;;;;11.07;2.42;;;;;;;22.48;42.78;101751.91;4968013;28;20027;-71
2023/06/14 09:36:16;;;;;;;2.60;2.40;;;;;;;22.55;43.01;101751.28;4967279;28;20330;-71
2023/06/14 09:38:42;;;;;;;3.50;2.17;;;;;;;22.56;43.33;101750.34;4967494;28;20030;-71
2023/06/14 09:41:07;;;;;;;3.13;2.42;;;;;;;22.59;44.28;101747.44;4967919;28;20126;-71
2023/06/14 09:43:33;;;;;;;6.35;2.60;;;;;;;;;;4964911;28;20043;-71
2023/06/14 09:46:00;;;;;;;19.77;2.47;;;;;;;22.71;43.49;101760.81;4973193;28;20065;-71
2023/06/14 09:48:26;;;;;;;5.70;2.35;;;;;;;22.75;43.67;101754.25;4970185;28;20463;-71
2023/06/14 09:50:54;;;;;;;3.13;2.53;;;;;;;22.79;44.14;101753.91;4969992;28;20034;-71
2023/06/14 09:53:25;;;;;;;7.07;2.70;;;;;;;22.85;43.78;101749.91;4970267;28;20035;-71
2023/06/14 09:55:54;;;;;;;7.57;2.45;;;;;;;22.94;43.30;101753.66;4970963;28;20061;-71
2023/06/14 09:58:23;;;;;;;3.17;2.03;;;;;;;22.98;40.29;101755.97;4971784;28;20042;-71
2023/06/14 10:00:50;;;;;;;5.10;2.50;;;;;;;23.00;40.40;101754.03;4974490;28;20037;-71
2023/06/14 10:03:23;;;;;;;4.32;2.00;;;;;;;23.04;40.29;101756.47;4976416;28;20396;-71
2023/06/14 10:05:50;;;;;;;5.97;2.15;;;;;;;23.05;40.13;101764.38;4965620;28;20039;-71
2023/06/14 10:08:19;;;;;;;3.28;2.20;;;;;;;23.08;39.07;101761.44;4978034;28;20281;-71
2023/06/14 10:10:44;;;;;;;;;;;;;;;23.10;38.20;101764.88;4968644;28;20279;-71
2023/06/14 10:13:11;;;;;;;3.63;1.92;;;;;;;23.16;38.16;101764.38;4977473;28;20272;-71
2023/06/14 10:15:50;;;;;;;5.15;1.98;;;;;;;23.23;37.96;101755.88;4968419;28;20023;-71
2023/06/14 10:18:23;;;;;;;5.40;1.88;;;;;;;23.27;37.58;101754.66;4977976;28;20034;-71
2023/06/14 10:21:20;;;;;;;2.47;1.85;;;;;;;23.29;37.79;101752.72;4969002;28;20046;-71
2023/06/14 10:23:48;;;;;;;4.20;1.80;;;;;;;23.33;36.88;101764.84;4971171;28;20043;-71
2023/06/14 10:26:21;;;;;;;3.63;1.80;;;;;;;23.39;36.83;101759.00;4969484;28;20045;-71
2023/06/14 10:28:58;;;;;;;12.68;2.00;;;;;;;23.40;36.00;101755.38;4977642;28;20311;-71
2023/06/14 10:31:41;;;;;;;4.82;2.30;;;;;;;23.45;35.83;101750.50;4968669;28;20046;-71
2023/06/14 10:34:06;;;;;;;2.95;1.80;;;;;;;23.47;34.80;101753.06;4969869;28;20027;-71
2023/06/14 10:36:32;;;;;;;4.43;2.00;;;;;;;23.48;35.39;101754.75;4970964;28;20054;-71
2023/06/14 10:39:15;;;;;;;2.00;1.88;;;;;;;23.53;36.39;101756.06;4976470;28;20162;-71
2023/06/14 10:41:41;;;;;;;2.78;1.60;;;;;;;23.58;35.82;101761.91;4969785;28;20101;-71
2023/06/14 10:44:12;;;;;;;2.67;1.60;;;;;;;23.58;35.45;101761.91;4971118;28;20034;-71
2023/06/14 10:46:48;;;;;;;2.05;1.73;;;;;;;23.63;35.39;101757.97;4971907;28;20397;-71
2023/06/14 10:49:20;;;;;;;1.73;1.63;;;;;;;23.69;35.63;101765.53;4973594;28;20030;-71
2023/06/14 10:51:52;;;;;;;2.67;1.42;;;;;;;23.76;35.50;101758.69;4973746;28;20051;-71
2023/06/14 10:54:20;;;;;;;2.95;1.65;;;;;;;23.78;35.56;101762.09;4973565;28;20066;-71
2023/06/14 10:56:47;;;;;;;1.77;1.67;;;;;;;23.80;35.56;101756.66;4968499;28;20034;-71
2023/06/14 10:59:13;;;;;;;4.03;1.80;;;;;;;23.81;36.17;101759.19;4977605;28;20035;-71
2023/06/14 11:01:49;;;;;;;5.93;1.77;;;;;;;23.86;36.11;101756.13;4970947;28;20232;-71
2023/06/14 11:04:20;;;;;;;3.05;1.80;;;;;;;23.90;36.03;101761.13;4977730;28;20043;-71
2023/06/14 11:06:52;;;;;;;1.58;1.45;;;;;;;23.92;36.21;101743.09;4971595;28;20361;-71
2023/06/14 11:09:42;;;;;;;1.63;1.50;;;;;;;23.95;36.58;101750.03;4972036;28;20102;-71
2023/06/14 11:12:10;;;;;;;1.55;1.45;;;;;;;23.99;37.84;101753.28;4974099;28;20042;-71
2023/06/14 11:14:36;;;;;;;8.93;2.05;;;;;;;23.98;36.38;101743.56;4975748;28;20041;-71
2023/06/14 11:17:01;;;;;;;2.03;1.60;;;;;;;23.97;36.67;101741.88;4972777;28;20031;-71
2023/06/14 11:19:28;;;;;;;4.63;1.60;;;;;;;23.95;36.65;101745.50;4972355;28;20038;-71
2023/06/14 11:21:54;;;;;;;2.60;1.42;;;;;;;23.97;36.45;101741.88;4974549;28;20137;-71
2023/06/14 11:24:19;;;;;;;1.60;1.50;;;;;;;24.05;37.56;101739.38;4973198;28;20043;-71
2023/06/14 11:26:47;;;;;;;1.83;1.73;;;;;;;24.12;36.49;101740.56;4973081;28;20311;-71